Wabash, Nebraska
Current Conditions -  °F | °C
As of 3:35 AM on Friday 19 Dec 2014 (Local Time) from KPMV Reporting Station
Haze Haze  
Wind Chill: 22°   Ceiling: 500
Heat Index: 29°   Visibility: 4mi
Dew Point: 27°   Wind: 7mph
Humidity: 92%   Direction: 170°S
Pressure: 30.24"   Gusts: NA
Location:  40.9139°N, 96.2935°W
Report Text: KPMV 190935Z AUTO 17006KT 4SM BR BKN005 OVC010 M01/M03 A3024 RMK AO2 T10151026
Loading
Personal Weather Stations






























Interactive Weather Map New forecast layout! Learn more

10-Day Weather Forecast

Advertisements
Track Severe Weather on mobile